Time;durP1;ratioP1;P1;durP2;ratioP2;P2;SDS_P1;SDS_P2;PMS_P1;PMS_P2;Temp;Humidity;BMP_temperature;BMP_pressure;BME280_temperature;BME280_humidity;BME280_pressure;Samples;Min_cycle;Max_cycle;Signal;HPM_P1;HPM_P2
2022/06/18 00:02:28;;;;;;;;;19.40;19.40;;;;;20.33;58.23;99803.91;4970975;28;8938;-78
2022/06/18 00:04:56;;;;;;;;;17.80;17.80;;;;;20.49;58.07;99805.09;4954460;28;8886;-80
2022/06/18 00:07:25;;;;;;;;;17.00;17.00;;;;;20.63;57.02;99805.44;4970928;28;8859;-79
2022/06/18 00:10:01;;;;;;;;;18.00;17.00;;;;;20.38;57.52;99797.53;4970804;28;8907;-79
2022/06/18 00:15:21;;;;;;;;;16.00;15.40;;;;;20.21;57.49;99800.78;4939190;28;8996;-79
2022/06/18 00:17:51;;;;;;;;;21.20;19.80;;;;;19.86;58.84;99799.38;4961203;28;8979;-78
2022/06/18 00:20:22;;;;;;;;;16.80;16.60;;;;;19.75;59.04;99802.38;4948325;28;8897;-79
2022/06/18 00:22:53;;;;;;;;;13.60;13.20;;;;;19.70;59.34;99806.97;5006282;28;8854;-79
2022/06/18 00:25:26;;;;;;;;;20.00;17.80;;;;;19.60;59.46;99797.59;5016236;28;8898;-80
2022/06/18 00:27:55;;;;;;;;;14.20;14.20;;;;;19.62;59.00;99801.03;4973175;28;8854;-79
2022/06/18 00:30:27;;;;;;;;;19.00;18.60;;;;;19.59;59.60;99802.03;4941358;28;8952;-78
2022/06/18 00:32:57;;;;;;;;;14.60;14.20;;;;;19.47;59.70;99802.44;4957360;28;8988;-80
2022/06/18 00:35:26;;;;;;;;;18.00;15.80;;;;;19.36;59.97;99796.66;4989395;28;10124;-78
2022/06/18 00:37:59;;;;;;;;;16.20;15.80;;;;;19.28;60.18;99796.88;4989151;28;8841;-78
2022/06/18 00:40:31;;;;;;;;;17.00;17.00;;;;;19.28;60.90;99797.75;4957142;28;8845;-79
2022/06/18 00:43:03;;;;;;;;;14.00;14.00;;;;;19.27;60.74;99797.78;4958265;28;8967;-79
2022/06/18 00:45:33;;;;;;;;;14.80;14.80;;;;;19.16;60.44;99794.63;4977436;28;8868;-81
2022/06/18 00:48:09;;;;;;;;;16.00;15.60;;;;;19.14;60.64;99796.47;4992317;28;9734;-79
2022/06/18 00:50:44;;;;;;;;;18.40;16.60;;;;;19.14;59.84;99807.03;4941652;28;8856;-79
2022/06/18 00:53:17;;;;;;;;;14.80;14.80;;;;;19.20;60.28;99798.91;4989258;28;8872;-78
2022/06/18 00:55:54;;;;;;;;;15.20;15.20;;;;;19.40;59.08;99798.28;4988754;28;8975;-79
2022/06/18 00:58:30;;;;;;;;;15.60;15.60;;;;;19.46;59.01;99788.34;4973144;28;8872;-79
2022/06/18 01:01:00;;;;;;;;;14.40;14.00;;;;;19.50;58.89;99788.25;4976964;28;8852;-78
2022/06/18 01:03:32;;;;;;;;;13.40;13.40;;;;;19.47;59.27;99792.72;4991128;28;8886;-77
2022/06/18 01:06:13;;;;;;;;;17.80;17.80;;;;;19.68;59.92;99793.78;4984844;28;8942;-78
2022/06/18 01:08:44;;;;;;;;;22.00;20.20;;;;;19.93;59.66;99792.97;4996857;28;8864;-79
2022/06/18 01:11:20;;;;;;;;;18.80;15.40;;;;;20.12;59.69;99797.63;5012830;28;8852;-79
2022/06/18 01:13:49;;;;;;;;;19.40;19.40;;;;;20.29;59.30;99789.06;5029172;28;8960;-78
2022/06/18 01:16:19;;;;;;;;;19.80;19.00;;;;;20.44;58.81;99788.50;5029406;28;8955;-79
2022/06/18 01:18:52;;;;;;;;;20.40;19.20;;;;;20.59;58.82;99800.31;4996556;28;8950;-78
2022/06/18 01:21:31;;;;;;;;;20.20;18.60;;;;;20.70;58.12;99791.94;5029803;28;8836;-79
2022/06/18 01:24:08;;;;;;;;;17.40;17.00;;;;;20.77;58.14;99798.75;5029208;28;8852;-79
2022/06/18 01:26:38;;;;;;;;;21.60;20.00;;;;;20.82;58.17;99797.66;4964047;28;8864;-79
2022/06/18 01:29:07;;;;;;;;;21.00;21.00;;;;;20.84;57.90;99798.47;4979381;28;9564;-79
2022/06/18 01:31:37;;;;;;;;;23.00;21.00;;;;;20.84;57.94;99795.81;5029235;28;9622;-79
2022/06/18 01:34:09;;;;;;;;;19.20;19.20;;;;;20.87;57.70;99797.50;5029192;28;9771;-80
2022/06/18 01:36:42;;;;;;;;;20.60;20.00;;;;;20.84;58.04;99792.31;4996970;28;8875;-79
2022/06/18 01:39:17;;;;;;;;;19.20;18.80;;;;;20.70;58.57;99791.94;4964462;28;8885;-80
2022/06/18 01:41:51;;;;;;;;;19.20;19.20;;;;;20.75;58.19;99792.66;5029358;28;8856;-79
2022/06/18 01:44:32;;;;;;;;;19.60;18.40;;;;;20.79;58.08;99796.91;5012625;28;8957;-79
2022/06/18 01:47:06;;;;;;;;;18.20;18.20;;;;;20.81;57.75;99792.41;5028741;28;8856;-78
2022/06/18 01:49:41;;;;;;;;;18.40;18.40;;;;;20.83;57.68;99794.09;5011971;28;8856;-79
2022/06/18 01:52:14;;;;;;;;;20.00;20.00;;;;;20.80;57.85;99790.69;5012077;28;8840;-76
2022/06/18 01:54:49;;;;;;;;;19.80;19.00;;;;;20.79;57.65;99794.25;5012254;28;8840;-78
2022/06/18 01:57:23;;;;;;;;;21.40;20.60;;;;;20.79;57.69;99783.66;5021137;28;8859;-80
2022/06/18 01:59:57;;;;;;;;;18.00;16.20;;;;;20.73;57.36;99787.41;5013807;28;8840;-79
2022/06/18 02:02:43;;;;;;;;;22.60;20.00;;;;;20.61;57.29;99783.44;5031552;28;8859;-79
2022/06/18 02:05:15;;;;;;;;;21.00;21.00;;;;;20.59;57.57;99785.25;5014988;28;8859;-80
2022/06/18 02:07:45;;;;;;;;;13.40;13.40;;;;;20.62;57.79;99789.59;5032086;28;9074;-79
2022/06/18 02:10:20;;;;;;;;;17.40;17.00;;;;;20.59;57.55;99789.72;5030688;28;8848;-79
2022/06/18 02:12:50;;;;;;;;;19.60;19.40;;;;;20.59;57.32;99790.56;5032702;28;8867;-79
2022/06/18 02:15:25;;;;;;;;;20.20;18.20;;;;;20.53;57.69;99782.84;5013291;28;8852;-79
2022/06/18 02:18:00;;;;;;;;;21.00;20.20;;;;;20.52;57.92;99781.09;5012319;28;8957;-79
2022/06/18 02:20:33;;;;;;;;;17.20;17.20;;;;;20.53;58.00;99787.25;5028624;28;8936;-79
2022/06/18 02:23:05;;;;;;;;;18.80;18.40;;;;;20.50;57.91;99788.25;4975959;28;8860;-80
2022/06/18 02:25:37;;;;;;;;;19.60;18.80;;;;;20.50;57.95;99782.94;5008362;28;8843;-81
2022/06/18 02:28:13;;;;;;;;;19.00;16.80;;;;;20.50;58.24;99784.75;5007929;28;8847;-79
2022/06/18 02:30:42;;;;;;;;;19.20;19.20;;;;;20.50;58.48;99790.03;4975665;28;8862;-79
2022/06/18 02:33:18;;;;;;;;;18.00;18.00;;;;;20.46;58.61;99786.66;4991811;28;8866;-80
2022/06/18 02:35:47;;;;;;;;;18.40;17.80;;;;;20.45;58.60;99787.56;4978718;28;8858;-79
2022/06/18 02:38:20;;;;;;;;;19.60;19.00;;;;;20.33;58.89;99788.03;4991969;28;8888;-80
2022/06/18 02:40:50;;;;;;;;;20.00;19.20;;;;;20.23;58.76;99777.75;4991132;28;8956;-78
2022/06/18 02:43:22;;;;;;;;;21.80;21.40;;;;;20.20;58.84;99777.00;4991172;28;8896;-79
2022/06/18 02:45:55;;;;;;;;;19.80;19.00;;;;;20.10;58.70;99779.13;4991464;28;8850;-80
2022/06/18 02:48:29;;;;;;;;;16.00;16.00;;;;;20.08;59.15;99777.47;4952067;28;8847;-80
2022/06/18 02:51:00;;;;;;;;;19.80;18.60;;;;;20.07;58.50;99779.22;4968968;28;8863;-78
2022/06/18 02:53:30;;;;;;;;;19.80;17.00;;;;;20.01;58.79;99782.09;4959169;28;8871;-79
2022/06/18 02:56:03;;;;;;;;;19.20;19.20;;;;;19.73;59.77;99785.69;5007932;28;9642;-79
2022/06/18 02:58:36;;;;;;;;;17.40;17.20;;;;;19.77;59.45;99787.34;4975522;28;8994;-78
2022/06/18 03:01:07;;;;;;;;;20.20;19.00;;;;;19.82;59.46;99788.03;4987820;28;8980;-78
2022/06/18 03:03:39;;;;;;;;;20.60;19.00;;;;;19.93;59.32;99786.81;4971407;28;8877;-79
2022/06/18 03:06:10;;;;;;;;;19.80;19.80;;;;;20.01;59.29;99776.81;4955941;28;8858;-79
2022/06/18 03:08:39;;;;;;;;;19.20;19.00;;;;;20.09;59.08;99779.19;4956092;28;8858;-78
2022/06/18 03:13:56;;;;;;;;;21.60;18.80;;;;;20.23;58.79;99787.50;4996346;28;8850;-79
2022/06/18 03:16:26;;;;;;;;;20.60;19.20;;;;;20.25;58.90;99791.81;5000377;28;8862;-77
2022/06/18 03:18:57;;;;;;;;;18.80;18.20;;;;;20.27;58.81;99786.47;5001200;28;8852;-79
2022/06/18 03:21:33;;;;;;;;;19.20;19.20;;;;;20.25;58.69;99802.41;4998669;28;8844;-79
2022/06/18 03:24:02;;;;;;;;;17.00;17.00;;;;;20.00;59.31;99802.44;4966001;28;8840;-80
2022/06/18 03:26:35;;;;;;;;;18.00;18.00;;;;;20.06;59.27;99804.84;5031206;28;8852;-80
2022/06/18 03:29:07;;;;;;;;;19.60;18.40;;;;;20.10;59.03;99804.75;5015086;28;8891;-81
2022/06/18 03:31:37;;;;;;;;;17.80;17.80;;;;;20.15;59.48;99806.31;4998845;28;9654;-80
2022/06/18 03:34:06;;;;;;;;;16.20;16.20;;;;;20.27;58.99;99806.78;5015142;28;8856;-80
2022/06/18 03:36:35;;;;;;;;;18.80;18.20;;;;;20.35;58.84;99808.22;5031284;28;8840;-80
2022/06/18 03:39:06;;;;;;;;;20.20;17.20;;;;;20.42;58.96;99806.22;5032148;28;8832;-80
2022/06/18 03:41:36;;;;;;;;;20.60;20.60;;;;;20.48;58.69;99806.00;5033073;28;8878;-79
2022/06/18 03:44:05;;;;;;;;;17.00;16.20;;;;;20.54;58.31;99797.81;5016083;28;8851;-80
2022/06/18 03:46:37;;;;;;;;;19.00;18.60;;;;;20.58;58.30;99801.22;5032248;28;8874;-78
2022/06/18 03:49:23;;;;;;;;;21.00;20.20;;;;;20.67;58.17;99805.34;5015856;28;8840;-78
2022/06/18 03:51:53;;;;;;;;;20.40;18.80;;;;;20.74;57.96;99806.84;5032606;28;10009;-79
2022/06/18 03:54:22;;;;;;;;;21.20;20.80;;;;;20.80;57.81;99806.59;5033700;28;8871;-80
2022/06/18 03:56:53;;;;;;;;;20.00;19.60;;;;;20.87;57.48;99808.09;5018432;28;8886;-80
2022/06/18 03:59:23;;;;;;;;;20.40;19.40;;;;;20.94;56.93;99808.72;5035726;28;8872;-79
2022/06/18 04:01:53;;;;;;;;;18.60;17.00;;;;;20.96;56.62;99805.09;5019518;28;8858;-81
2022/06/18 04:04:25;;;;;;;;;20.00;18.60;;;;;20.90;56.00;99807.97;5035219;28;8834;-80
2022/06/18 04:06:57;;;;;;;;;17.60;17.60;;;;;20.93;56.05;99802.56;5019285;28;8959;-79
2022/06/18 04:10:01;;;;;;;;;19.20;18.60;;;;;21.02;55.64;99804.00;4971921;28;8854;-78
2022/06/18 04:12:31;;;;;;;;;19.40;16.00;;;;;21.07;55.31;99801.13;4955748;28;8953;-80
2022/06/18 04:15:11;;;;;;;;;16.00;16.00;;;;;21.08;55.26;99808.16;4940553;28;8855;-81
2022/06/18 04:17:48;;;;;;;;;15.60;14.80;;;;;21.15;55.35;99809.66;4939074;28;8894;-80
2022/06/18 04:20:22;;;;;;;;;16.60;16.60;;;;;21.22;55.36;99813.78;4939667;28;8871;-79
2022/06/18 04:22:51;;;;;;;;;20.40;20.20;;;;;21.31;55.44;99812.56;4955338;28;8900;-80
2022/06/18 04:25:22;;;;;;;;;21.60;21.20;;;;;21.19;54.92;99817.44;4972815;28;8895;-79
2022/06/18 04:27:56;;;;;;;;;19.60;18.60;;;;;20.78;55.54;99833.16;4942835;28;8843;-80
2022/06/18 04:30:31;;;;;;;;;21.40;20.80;;;;;20.49;56.18;99825.41;4939944;28;8862;-80
2022/06/18 04:33:04;;;;;;;;;22.40;20.60;;;;;20.23;56.83;99832.53;4955493;28;8877;-79
2022/06/18 04:35:37;;;;;;;;;21.00;20.60;;;;;20.17;56.78;99836.25;4971672;28;8953;-79
2022/06/18 04:38:10;;;;;;;;;18.40;18.20;;;;;20.02;57.13;99837.66;4932478;29;8877;-79
2022/06/18 04:40:43;;;;;;;;;21.40;20.60;;;;;19.70;58.35;99838.72;4933192;29;8864;-79
2022/06/18 04:43:49;;;;;;;;;18.60;18.40;;;;;19.74;58.53;99843.00;4959336;28;8976;-79
2022/06/18 04:46:19;;;;;;;;;19.20;19.00;;;;;19.52;59.30;99841.97;4962448;28;8952;-79
2022/06/18 04:48:51;;;;;;;;;15.40;15.40;;;;;19.50;58.73;99849.09;5010132;28;8880;-80
2022/06/18 04:51:21;;;;;;;;;17.40;16.40;;;;;19.28;59.13;99848.00;4994405;28;8960;-80
2022/06/18 04:53:49;;;;;;;;;18.60;17.00;;;;;19.60;58.39;99845.22;5010115;28;8852;-80
2022/06/18 04:56:18;;;;;;;;;20.00;18.60;;;;;19.60;57.62;99846.09;4993435;28;8883;-79
2022/06/18 04:58:50;;;;;;;;;19.00;17.80;;;;;19.42;58.12;99851.97;5026758;28;8887;-80
2022/06/18 05:01:27;;;;;;;;;17.20;17.20;;;;;19.21;59.14;99851.72;5026045;28;8894;-80
2022/06/18 05:04:22;;;;;;;;;17.60;16.80;;;;;19.53;58.02;99841.03;4932488;29;8867;-79
2022/06/18 05:07:14;;;;;;;;;17.80;17.00;;;;;19.83;57.03;99842.72;4932891;29;8867;-79
2022/06/18 05:10:07;;;;;;;;;18.60;17.80;;;;;19.60;57.28;99845.22;4932626;28;8966;-79
2022/06/18 05:12:50;;;;;;;;;18.40;16.40;;;;;19.21;58.16;99845.59;4936270;28;8880;-80
2022/06/18 05:15:56;;;;;;;;;17.00;16.80;;;;;19.48;57.28;99847.34;4916233;29;8878;-77
2022/06/18 05:18:28;;;;;;;;;14.20;13.20;;;;;19.38;58.32;99855.63;4912227;29;8950;-79
2022/06/18 05:20:59;;;;;;;;;16.00;15.40;;;;;19.62;57.27;99849.56;4896762;29;8855;-80
2022/06/18 05:23:29;;;;;;;;;19.60;17.40;;;;;19.85;55.92;99848.81;4912521;29;8996;-81
2022/06/18 05:26:00;;;;;;;;;20.60;19.20;;;;;19.50;57.32;99849.94;4913365;29;8883;-79
2022/06/18 05:28:29;;;;;;;;;17.40;16.40;;;;;19.63;57.26;99850.41;4913093;29;8904;-81
2022/06/18 05:30:59;;;;;;;;;18.40;17.20;;;;;19.72;56.66;99855.44;4899997;29;10035;-79
2022/06/18 05:33:31;;;;;;;;;21.40;21.40;;;;;19.46;58.09;99859.75;4913557;29;8855;-79
2022/06/18 05:36:00;;;;;;;;;17.00;14.20;;;;;19.79;56.75;99851.69;4912248;29;8885;-79
2022/06/18 05:38:29;;;;;;;;;14.80;14.00;;;;;20.17;55.81;99854.78;4913514;29;8899;-80
2022/06/18 05:40:58;;;;;;;;;20.20;18.60;;;;;20.16;55.22;99861.00;4916316;29;8873;-80
2022/06/18 05:43:27;;;;;;;;;22.20;21.60;;;;;19.64;56.83;99868.00;4931841;29;8914;-80
2022/06/18 05:45:55;;;;;;;;;16.20;16.20;;;;;19.17;57.75;99867.72;4915745;29;8869;-78
2022/06/18 05:48:29;;;;;;;;;16.40;16.40;;;;;19.08;58.65;99868.88;4915468;29;8903;-80
2022/06/18 05:50:58;;;;;;;;;18.20;17.60;;;;;19.61;57.76;99868.13;4995854;28;9706;-81
2022/06/18 05:53:26;;;;;;;;;19.60;17.80;;;;;19.12;59.31;99877.59;5012337;28;8881;-79
2022/06/18 05:56:06;;;;;;;;;21.20;19.40;;;;;18.97;60.72;99882.41;5028806;28;8872;-79
2022/06/18 05:58:48;;;;;;;;;22.60;22.60;;;;;19.50;58.71;99879.03;5028462;28;8867;-79
2022/06/18 06:01:27;;;;;;;;;17.40;17.40;;;;;19.33;58.95;99878.72;5012414;28;8852;-79
2022/06/18 06:04:01;;;;;;;;;20.00;19.20;;;;;19.20;59.01;99883.50;5028296;28;8860;-79
2022/06/18 06:06:30;;;;;;;;;24.40;24.40;;;;;19.16;60.06;99884.50;5045046;28;9593;-81
2022/06/18 06:08:58;;;;;;;;;21.80;19.00;;;;;19.75;58.62;99883.56;4979707;28;8871;-80
2022/06/18 06:11:29;;;;;;;;;20.00;19.00;;;;;20.14;57.31;99880.50;4980125;28;8905;-78
2022/06/18 06:14:01;;;;;;;;;18.00;18.00;;;;;20.24;57.08;99879.25;5013770;28;8936;-80
2022/06/18 06:16:30;;;;;;;;;20.60;18.60;;;;;20.49;56.49;99873.97;5017287;28;8897;-78
2022/06/18 06:19:05;;;;;;;;;21.00;20.40;;;;;20.75;56.54;99882.75;5017128;28;8867;-80
2022/06/18 06:21:33;;;;;;;;;25.00;23.40;;;;;20.35;58.10;99890.34;5029818;28;8852;-78
2022/06/18 06:24:02;;;;;;;;;22.60;21.80;;;;;19.67;60.49;99886.44;4963790;28;8875;-80
2022/06/18 06:26:34;;;;;;;;;23.60;22.80;;;;;19.54;60.57;99890.38;4997161;28;8881;-81
2022/06/18 06:29:04;;;;;;;;;21.60;20.80;;;;;19.11;61.10;99902.28;5030061;28;9013;-80
2022/06/18 06:31:32;;;;;;;;;23.80;22.00;;;;;19.17;61.43;99894.16;5028381;28;8974;-78
2022/06/18 06:34:01;;;;;;;;;21.60;21.20;;;;;19.37;60.66;99896.22;5011664;28;8867;-79
2022/06/18 06:36:31;;;;;;;;;21.40;20.60;;;;;19.73;58.78;99893.34;5029386;28;8909;-77
2022/06/18 06:39:02;;;;;;;;;22.80;22.20;;;;;19.91;58.66;99897.19;4987821;28;8938;-78
2022/06/18 06:41:32;;;;;;;;;19.00;18.00;;;;;20.08;58.17;99892.16;5027002;28;8871;-78
2022/06/18 06:44:01;;;;;;;;;21.80;21.80;;;;;20.32;57.50;99901.06;5049198;28;8871;-78
2022/06/18 06:46:32;;;;;;;;;18.80;17.40;;;;;20.50;57.12;99899.53;5038156;28;8890;-80
2022/06/18 06:49:01;;;;;;;;;22.40;22.40;;;;;20.80;55.59;99896.72;5029478;28;8855;-80
2022/06/18 06:51:33;;;;;;;;;22.00;21.00;;;;;20.95;55.27;99895.28;5016378;28;8863;-79
2022/06/18 06:54:07;;;;;;;;;23.00;22.40;;;;;21.13;55.30;99899.88;5032720;28;8867;-79
2022/06/18 06:59:24;;;;;;;;;20.00;18.00;;;;;20.86;54.51;99904.44;5019363;28;8834;-79
2022/06/18 07:01:54;;;;;;;;;21.20;20.40;;;;;20.38;55.71;99913.22;5055312;28;8862;-81
2022/06/18 07:04:23;;;;;;;;;22.60;22.40;;;;;20.21;56.13;99916.44;5037096;28;8869;-80
2022/06/18 07:06:56;;;;;;;;;20.00;19.00;;;;;19.98;56.54;99927.78;5039544;28;8850;-79
2022/06/18 07:09:24;;;;;;;;;20.60;20.20;;;;;20.11;56.71;99918.53;4973514;28;8826;-80
2022/06/18 07:11:53;;;;;;;;;21.00;21.00;;;;;20.47;55.88;99917.31;5069080;28;9773;-79
2022/06/18 07:14:22;;;;;;;;;21.60;20.20;;;;;20.58;55.27;99913.34;5054360;28;8874;-79
2022/06/18 07:16:53;;;;;;;;;19.20;17.40;;;;;21.11;54.74;99909.66;5035423;28;8858;-79
2022/06/18 07:19:22;;;;;;;;;21.60;21.60;;;;;20.82;55.13;99918.72;5051103;28;8862;-78
2022/06/18 07:21:53;;;;;;;;;23.60;22.20;;;;;21.06;54.82;99916.06;5051331;28;8865;-79
2022/06/18 07:24:22;;;;;;;;;17.60;17.60;;;;;20.80;55.29;99913.47;5050022;28;9616;-79
2022/06/18 07:26:50;;;;;;;;;21.80;21.60;;;;;20.70;55.21;99916.50;5031548;28;8862;-79
2022/06/18 07:29:20;;;;;;;;;22.20;22.00;;;;;20.73;55.93;99919.94;5018342;28;8965;-79
2022/06/18 07:31:51;;;;;;;;;23.80;23.20;;;;;20.80;56.19;99917.94;5052179;28;8880;-80
2022/06/18 07:34:20;;;;;;;;;21.60;20.40;;;;;20.98;55.58;99913.72;5030433;28;8988;-79
2022/06/18 07:36:48;;;;;;;;;23.40;23.20;;;;;20.99;55.55;99915.47;5030611;28;9019;-80
2022/06/18 07:39:19;;;;;;;;;22.20;22.00;;;;;21.12;55.05;99915.88;5048430;28;8873;-78
2022/06/18 07:41:54;;;;;;;;;24.00;23.20;;;;;21.39;53.93;99912.13;5030421;28;8924;-80
2022/06/18 07:44:23;;;;;;;;;20.80;19.00;;;;;21.03;55.67;99923.22;5030779;28;8916;-80
2022/06/18 07:46:52;;;;;;;;;23.20;21.60;;;;;21.22;55.45;99912.78;5054058;28;8923;-79
2022/06/18 07:49:21;;;;;;;;;24.60;23.80;;;;;21.53;54.04;99908.09;5018750;28;8860;-80
2022/06/18 07:51:50;;;;;;;;;29.60;26.00;;;;;21.73;53.57;99904.66;5030305;28;8881;-79
2022/06/18 07:54:21;;;;;;;;;24.20;24.20;;;;;21.75;53.37;99911.63;5048431;28;8861;-80
2022/06/18 07:56:50;;;;;;;;;27.40;26.00;;;;;21.84;53.74;99915.69;5013803;28;8963;-79
2022/06/18 07:59:19;;;;;;;;;26.80;24.40;;;;;21.35;54.97;99918.47;5048409;28;8850;-80
2022/06/18 08:01:48;;;;;;;;;29.00;27.50;;;;;21.44;55.21;99925.25;5052103;28;8897;-81
2022/06/18 08:04:16;;;;;;;;;27.50;27.50;;;;;21.70;54.49;99918.91;5035397;28;8862;-81
2022/06/18 08:06:45;;;;;;;;;22.20;21.80;;;;;21.84;54.31;99918.34;5056071;28;8939;-80
2022/06/18 08:09:14;;;;;;;;;22.60;22.00;;;;;21.88;54.08;99921.75;5061203;28;8854;-80
2022/06/18 08:11:44;;;;;;;;;24.00;23.80;;;;;22.12;53.38;99928.69;5038228;28;8977;-81
2022/06/18 08:14:14;;;;;;;;;26.20;24.20;;;;;22.02;52.85;99921.16;5052206;28;9000;-80
2022/06/18 08:16:44;;;;;;;;;21.20;20.80;;;;;21.97;51.79;99926.69;5034197;28;8846;-80
2022/06/18 08:19:13;;;;;;;;;21.00;20.80;;;;;21.76;52.60;99931.09;5033133;28;8865;-81
2022/06/18 08:21:48;;;;;;;;;23.40;23.40;;;;;21.99;50.43;99927.47;5034228;28;8841;-81
2022/06/18 08:24:21;;;;;;;;;21.20;20.60;;;;;21.76;51.82;99926.63;5017537;28;8969;-80
2022/06/18 08:26:53;;;;;;;;;18.60;18.00;;;;;21.96;50.91;99922.28;5034335;28;8839;-80
2022/06/18 08:29:24;;;;;;;;;19.00;18.40;;;;;21.96;51.23;99919.63;5034210;28;8876;-80
2022/06/18 08:31:53;;;;;;;;;20.20;19.20;;;;;22.15;51.63;99917.91;5033608;28;8878;-82
2022/06/18 08:34:23;;;;;;;;;18.60;18.40;;;;;22.18;50.70;99925.75;4984728;28;8857;-80
2022/06/18 08:36:59;;;;;;;;;21.00;19.80;;;;;22.07;51.41;99919.19;4973077;28;8850;-80
2022/06/18 08:39:28;;;;;;;;;19.20;18.40;;;;;22.26;51.15;99921.97;4956970;28;8885;-79
2022/06/18 08:42:12;;;;;;;;;18.80;18.80;;;;;22.37;50.74;99915.25;4972853;28;9666;-80
2022/06/18 08:45:09;;;;;;;;;21.00;21.00;;;;;22.45;50.46;99916.72;4989839;28;8862;-79
2022/06/18 08:48:05;;;;;;;;;20.40;19.40;;;;;22.57;49.39;99927.69;4989269;28;8911;-82
2022/06/18 08:50:47;;;;;;;;;19.60;19.60;;;;;22.39;49.79;99921.34;4972858;28;9017;-78
2022/06/18 08:53:51;;;;;;;;;20.60;20.60;;;;;22.62;49.67;99921.28;4989482;28;8862;-81
2022/06/18 08:56:29;;;;;;;;;18.60;17.60;;;;;22.84;49.17;99922.06;4988776;28;8841;-81
2022/06/18 08:59:15;;;;;;;;;17.60;17.60;;;;;22.81;48.78;99918.66;4988950;28;8848;-79
2022/06/18 09:01:50;;;;;;;;;16.80;16.80;;;;;22.70;48.76;99917.38;4988732;28;8848;-80
2022/06/18 09:04:29;;;;;;;;;17.00;15.20;;;;;22.78;48.48;99917.88;4957094;28;8987;-83
2022/06/18 09:07:17;;;;;;;;;17.60;16.40;;;;;22.87;48.05;99913.06;4990069;28;8864;-80
2022/06/18 09:09:51;;;;;;;;;20.20;19.40;;;;;23.21;47.44;99912.41;5030996;28;8845;-79
2022/06/18 09:12:25;;;;;;;;;17.80;16.80;;;;;23.16;48.24;99906.44;5012672;28;9671;-79
2022/06/18 09:15:02;;;;;;;;;22.00;21.60;;;;;23.28;48.91;99903.19;5029236;28;8856;-80
2022/06/18 09:17:39;;;;;;;;;17.80;15.80;;;;;23.46;47.98;99898.81;5012440;28;8867;-78
2022/06/18 09:20:11;;;;;;;;;18.00;16.20;;;;;23.53;46.05;99913.56;5012025;28;8880;-78
2022/06/18 09:22:46;;;;;;;;;16.80;16.80;;;;;23.68;46.27;99901.25;5028931;28;8844;-80
2022/06/18 09:25:18;;;;;;;;;16.20;16.00;;;;;23.60;45.66;99921.22;5030199;28;8833;-78
2022/06/18 09:27:54;;;;;;;;;13.60;13.60;;;;;23.37;45.53;99909.88;5014731;28;8995;-79
2022/06/18 09:30:32;;;;;;;;;14.40;14.20;;;;;23.34;45.56;99912.69;5048918;28;8866;-79
2022/06/18 09:33:06;;;;;;;;;10.00;10.00;;;;;23.51;44.98;99903.91;5037837;28;8829;-77
2022/06/18 09:35:41;;;;;;;;;9.00;9.00;;;;;23.37;44.19;99912.56;5028696;28;8945;-78
2022/06/18 09:38:18;;;;;;;;;11.00;11.00;;;;;23.41;44.58;99905.28;5029311;28;8972;-78
2022/06/18 09:40:50;;;;;;;;;11.40;11.40;;;;;23.64;43.73;99902.34;5030123;28;8855;-77
2022/06/18 09:43:25;;;;;;;;;13.80;12.60;;;;;23.68;43.15;99901.25;5030304;28;8828;-77
2022/06/18 09:46:02;;;;;;;;;10.20;10.20;;;;;23.70;44.01;99888.75;5029504;28;8978;-81
2022/06/18 09:48:31;;;;;;;;;11.00;11.00;;;;;23.96;43.84;99891.94;4996402;28;8871;-79
2022/06/18 09:51:05;;;;;;;;;13.80;12.80;;;;;23.85;44.08;99900.47;5032803;28;8933;-77
2022/06/18 09:53:37;;;;;;;;;11.60;11.00;;;;;23.97;43.39;99880.38;4998917;28;8864;-78
2022/06/18 09:56:09;;;;;;;;;14.00;14.00;;;;;24.16;43.01;99895.41;5014416;28;8997;-79
2022/06/18 09:58:43;;;;;;;;;13.20;12.00;;;;;24.35;42.81;99884.63;5051124;28;8923;-78
2022/06/18 10:01:18;;;;;;;;;11.20;11.20;;;;;24.59;41.84;99887.88;5035582;28;8854;-77
2022/06/18 10:06:58;;;;;;;;;11.60;11.40;;;;;24.22;42.76;99881.78;5001211;28;8917;-78
2022/06/18 10:09:43;;;;;;;;;13.40;13.20;;;;;24.28;41.97;99882.31;5011134;28;8862;-77
2022/06/18 10:12:21;;;;;;;;;12.60;11.00;;;;;24.36;42.12;99879.22;5013991;28;8944;-77
2022/06/18 10:14:55;;;;;;;;;10.40;9.20;;;;;24.80;41.18;99861.84;5001677;28;9103;-80
2022/06/18 10:17:50;;;;;;;;;11.00;10.60;;;;;24.71;39.47;99877.41;5011788;28;8889;-81
2022/06/18 10:20:29;;;;;;;;;12.20;11.80;;;;;24.85;39.67;99867.78;4996547;28;8864;-77
2022/06/18 10:23:06;;;;;;;;;12.20;12.20;;;;;25.15;39.54;99861.72;4994240;28;9010;-77
2022/06/18 10:25:41;;;;;;;;;10.20;10.20;;;;;25.43;37.04;99859.22;5011593;28;8860;-79
2022/06/18 10:28:21;;;;;;;;;8.60;8.60;;;;;25.17;37.48;99854.47;4961907;28;8880;-80
2022/06/18 10:31:00;;;;;;;;;10.40;10.00;;;;;25.34;37.42;99859.75;5026228;28;8844;-79
2022/06/18 10:33:44;;;;;;;;;7.60;7.60;;;;;25.39;37.31;99863.03;5009834;28;8845;-78
2022/06/18 10:36:21;;;;;;;;;9.00;8.00;;;;;25.18;36.72;99870.41;5026260;28;8913;-78
2022/06/18 10:39:02;;;;;;;;;5.20;5.20;;;;;24.86;35.25;99864.19;5046339;28;8879;-78
2022/06/18 10:41:39;;;;;;;;;7.40;7.40;;;;;24.92;34.44;99855.00;5048224;28;9581;-77
2022/06/18 10:44:20;;;;;;;;;8.40;8.20;;;;;25.18;34.75;99857.06;5030539;28;8858;-77
2022/06/18 10:47:00;;;;;;;;;9.60;8.40;;;;;25.54;32.23;99860.41;5048518;28;8894;-78
2022/06/18 10:49:31;;;;;;;;;8.20;7.40;;;;;25.60;30.54;99868.94;5048155;28;8854;-75
2022/06/18 10:52:01;;;;;;;;;7.40;7.40;;;;;25.88;30.18;99865.53;5013471;28;8957;-76
2022/06/18 10:54:32;;;;;;;;;9.00;8.00;;;;;26.19;30.05;99862.88;5048093;28;8865;-76
2022/06/18 10:57:01;;;;;;;;;6.80;6.80;;;;;26.45;29.53;99856.78;5047997;28;8880;-77
2022/06/18 10:59:32;;;;;;;;;8.60;8.00;;;;;26.38;28.46;99852.75;5047842;28;8834;-76
2022/06/18 11:02:18;;;;;;;;;9.00;8.00;;;;;26.40;28.70;99850.84;5048386;28;8854;-78
2022/06/18 11:04:58;;;;;;;;;6.00;6.00;;;;;26.92;29.34;99832.53;4951821;28;8843;-76
2022/06/18 11:07:29;;;;;;;;;7.00;5.60;;;;;27.31;28.91;99844.34;4952861;28;8883;-76
2022/06/18 11:10:00;;;;;;;;;7.80;7.80;;;;;27.48;27.75;99838.72;4952002;28;8843;-76
2022/06/18 11:12:33;;;;;;;;;8.40;8.00;;;;;27.58;27.95;99845.19;4967479;28;8871;-76
2022/06/18 11:15:04;;;;;;;;;8.80;8.00;;;;;27.88;27.60;99848.59;4967325;28;8847;-79
2022/06/18 11:17:37;;;;;;;;;7.60;7.60;;;;;28.12;27.72;99846.09;4919536;28;8870;-76
2022/06/18 11:20:19;;;;;;;;;6.60;6.60;;;;;28.51;26.96;99839.78;4966824;28;8863;-76
2022/06/18 11:22:53;;;;;;;;;6.00;6.00;;;;;28.67;26.20;99844.09;4951044;28;8882;-76
2022/06/18 11:25:36;;;;;;;;;8.40;8.40;;;;;28.37;25.91;99846.13;4967030;28;8941;-75
2022/06/18 11:28:14;;;;;;;;;7.80;7.40;;;;;28.41;25.57;99841.38;4967248;28;8855;-76
2022/06/18 11:30:46;;;;;;;;;5.80;5.80;;;;;28.49;25.81;99844.41;4935286;28;8842;-75
2022/06/18 11:33:33;;;;;;;;;6.00;6.00;;;;;28.84;24.91;99824.94;4967036;28;8863;-76
2022/06/18 11:36:11;;;;;;;;;7.40;7.40;;;;;29.23;23.90;99831.09;4954551;28;8831;-76
2022/06/18 11:38:41;;;;;;;;;5.40;5.20;;;;;29.46;24.51;99829.38;4922948;28;8889;-76
2022/06/18 11:41:18;;;;;;;;;5.20;5.20;;;;;29.61;23.96;99827.38;4962207;28;8882;-75
2022/06/18 11:43:53;;;;;;;;;6.80;6.80;;;;;29.72;24.22;99827.41;5051330;28;8864;-75
2022/06/18 11:46:27;;;;;;;;;6.80;6.80;;;;;29.92;23.98;99823.25;5051634;28;8962;-75
2022/06/18 11:49:05;;;;;;;;;4.80;4.80;;;;;30.12;23.55;99821.69;5051619;28;8851;-75
2022/06/18 11:51:42;;;;;;;;;6.00;6.00;;;;;30.35;23.70;99813.69;5017621;28;8858;-76
2022/06/18 11:54:22;;;;;;;;;6.20;5.60;;;;;30.28;22.99;99818.69;5052325;28;8874;-75
2022/06/18 11:56:58;;;;;;;;;5.40;5.40;;;;;30.49;22.95;99816.16;5051153;28;8850;-76
2022/06/18 11:59:34;;;;;;;;;5.20;5.20;;;;;30.67;22.24;99807.59;5051495;28;8974;-73
2022/06/18 12:02:09;;;;;;;;;4.20;4.20;;;;;31.23;22.34;99809.34;5050906;28;8874;-75
2022/06/18 12:04:46;;;;;;;;;5.20;5.20;;;;;31.31;21.27;99800.66;5051484;28;8969;-75
2022/06/18 12:07:22;;;;;;;;;5.20;4.20;;;;;31.41;21.37;99804.25;5051243;28;9635;-76
2022/06/18 12:09:51;;;;;;;;;4.20;3.40;;;;;31.25;21.61;99800.16;5051126;28;8865;-76